Terminal Aerodrome Forecast
Issued by NWS Tallahassee, FL

Home | Current Version | Previous Version | Text Only | Print | Product List | Glossary On
Versions: 1 2 3 4 5 6 7 8 9 10 11 12 13 14 15 16
000
FTUS42 KTAE 262320
TAFTLH
TAF
KTLH 262320Z 2700/2724 33005KT P6SM FEW040 BKN120
     FM270100 09003KT P6SM BKN100
     FM271500 35007KT P6SM SCT040 PROB30 2719/2723 4SM TSRA
      BKN040CB=

USA.gov is the U.S. government's official web portal to all federal, state and local government web resources and services.